Time;durP1;ratioP1;P1;durP2;ratioP2;P2;SDS_P1;SDS_P2;PMS_P1;PMS_P2;Temp;Humidity;BMP_temperature;BMP_pressure;BME280_temperature;BME280_humidity;BME280_pressure;Samples;Min_cycle;Max_cycle;Signal;HPM_P1;HPM_P2
2022/06/04 00:00:19;;;;;;;2.53;1.55;;;24.30;41.00;;;;;;5121732;28;20020;-44
2022/06/04 00:02:48;;;;;;;2.35;1.55;;;24.30;41.00;;;;;;5119869;28;20024;-41
2022/06/04 00:05:16;;;;;;;3.10;1.65;;;24.30;41.20;;;;;;5121029;28;20016;-39
2022/06/04 00:07:42;;;;;;;5.43;1.80;;;24.30;41.20;;;;;;5120226;28;20012;-42
2022/06/04 00:15:45;;;;;;;2.85;1.60;;;24.30;41.10;;;;;;5120711;28;20092;-41
2022/06/04 00:18:10;;;;;;;2.47;1.40;;;24.20;41.20;;;;;;5120698;28;20014;-42
2022/06/04 00:20:37;;;;;;;2.10;1.40;;;24.20;41.40;;;;;;5119624;28;20008;-43
2022/06/04 00:23:04;;;;;;;1.77;1.50;;;24.20;41.50;;;;;;5119017;28;20068;-40
2022/06/04 00:25:30;;;;;;;3.78;1.50;;;24.10;41.70;;;;;;5119210;28;20019;-39
2022/06/04 00:27:58;;;;;;;2.08;1.48;;;24.10;41.60;;;;;;5119943;28;20444;-41
2022/06/04 00:30:23;;;;;;;3.25;1.65;;;24.00;42.30;;;;;;5084435;28;20065;-40
2022/06/04 00:32:49;;;;;;;2.25;1.27;;;24.00;41.80;;;;;;5119797;28;20008;-39
2022/06/04 00:35:15;;;;;;;4.88;1.80;;;24.00;41.70;;;;;;5119230;27;20513;-42
2022/06/04 00:37:41;;;;;;;2.72;1.42;;;24.00;41.70;;;;;;5118748;28;20015;-46
2022/06/04 00:40:08;;;;;;;2.75;1.48;;;24.00;41.70;;;;;;5119297;28;20016;-43
2022/06/04 00:42:34;;;;;;;2.58;1.50;;;24.00;41.50;;;;;;5118917;28;20069;-44
2022/06/04 00:45:34;;;;;;;5.43;1.42;;;24.00;41.60;;;;;;5118611;28;20019;-41
2022/06/04 00:48:02;;;;;;;3.17;1.50;;;24.00;41.50;;;;;;5118019;28;20601;-42
2022/06/04 00:50:28;;;;;;;2.88;1.30;;;23.90;41.40;;;;;;5116953;28;20016;-41
2022/06/04 00:52:54;;;;;;;5.18;1.45;;;24.00;41.30;;;;;;5117721;28;20008;-44
2022/06/04 00:55:20;;;;;;;2.75;1.20;;;23.90;41.40;;;;;;5118332;28;20020;-42
2022/06/04 00:58:04;;;;;;;3.42;1.50;;;23.90;41.30;;;;;;5119302;28;20019;-40
2022/06/04 01:00:36;;;;;;;2.33;1.45;;;23.90;41.20;;;;;;5117225;28;20016;-49
2022/06/04 01:03:11;;;;;;;3.78;1.60;;;24.00;41.10;;;;;;5118415;28;20019;-43
2022/06/04 01:06:01;;;;;;;2.33;1.10;;;24.00;41.10;;;;;;5120414;28;20073;-41
2022/06/04 01:08:35;;;;;;;2.47;1.20;;;24.00;41.10;;;;;;5118112;28;20080;-43
2022/06/04 01:11:25;;;;;;;2.03;1.30;;;24.10;41.10;;;;;;5117637;28;20102;-42
2022/06/04 01:13:57;;;;;;;2.53;1.20;;;24.10;41.10;;;;;;5116305;28;20455;-43
2022/06/04 01:16:41;;;;;;;2.70;1.27;;;24.10;40.90;;;;;;5117436;28;20045;-46
2022/06/04 01:19:24;;;;;;;2.03;1.48;;;24.10;40.90;;;;;;5118247;28;20020;-46
2022/06/04 01:22:12;;;;;;;2.35;1.33;;;24.10;40.80;;;;;;5118643;28;20011;-42
2022/06/04 01:24:53;;;;;;;2.63;1.40;;;24.10;40.80;;;;;;5120835;28;20035;-43
2022/06/04 01:27:48;;;;;;;1.55;1.20;;;24.10;40.80;;;;;;5120276;27;20034;-44
2022/06/04 01:30:18;;;;;;;1.60;1.20;;;24.00;40.90;;;;;;5119654;28;20015;-44
2022/06/04 01:32:55;;;;;;;2.55;1.30;;;23.90;40.80;;;;;;5118656;28;20060;-47
2022/06/04 01:35:28;;;;;;;3.47;1.30;;;23.90;40.80;;;;;;5120566;28;20038;-43
2022/06/04 01:38:07;;;;;;;3.97;1.33;;;23.80;40.80;;;;;;5119357;28;20020;-45
2022/06/04 01:43:21;;;;;;;4.10;1.20;;;23.80;40.60;;;;;;5120504;28;20130;-43
2022/06/04 01:45:46;;;;;;;2.88;1.20;;;23.80;40.70;;;;;;5102194;28;20016;-42
2022/06/04 01:48:12;;;;;;;2.20;1.10;;;23.80;40.70;;;;;;5102753;28;20495;-45
2022/06/04 01:50:49;;;;;;;1.70;1.10;;;23.80;40.50;;;;;;5120549;28;20028;-45
2022/06/04 01:53:16;;;;;;;2.05;1.10;;;23.80;40.30;;;;;;5105127;28;20107;-45
2022/06/04 01:55:48;;;;;;;2.97;1.23;;;23.80;40.40;;;;;;5121608;28;20023;-47
2022/06/04 01:58:20;;;;;;;3.55;1.30;;;23.80;40.40;;;;;;5120096;28;20012;-42
2022/06/04 02:00:57;;;;;;;2.88;1.10;;;23.80;40.30;;;;;;5120221;28;20019;-43
2022/06/04 02:03:34;;;;;;;1.35;1.10;;;23.80;40.30;;;;;;5120180;28;20035;-42
2022/06/04 02:06:11;;;;;;;4.28;1.42;;;23.80;40.20;;;;;;5120302;28;20034;-42
2022/06/04 02:08:43;;;;;;;2.25;1.13;;;23.80;40.10;;;;;;5119519;28;20046;-45
2022/06/04 02:11:16;;;;;;;2.63;1.30;;;23.80;40.20;;;;;;5119309;28;20020;-41
2022/06/04 02:13:43;;;;;;;3.38;1.20;;;23.80;40.20;;;;;;5101142;28;20031;-45
2022/06/04 02:16:20;;;;;;;2.63;1.08;;;23.80;40.20;;;;;;5116829;28;20049;-47
2022/06/04 02:18:46;;;;;;;1.98;1.38;;;23.70;40.20;;;;;;5119261;28;20038;-46
2022/06/04 02:21:12;;;;;;;1.88;1.00;;;23.70;40.20;;;;;;5120579;28;20016;-41
2022/06/04 02:23:38;;;;;;;3.35;1.27;;;23.70;40.20;;;;;;5117904;28;20096;-43
2022/06/04 02:26:04;;;;;;;1.90;1.05;;;23.70;40.60;;;;;;5116374;28;20019;-41
2022/06/04 02:28:30;;;;;;;5.80;1.55;;;23.80;40.10;;;;;;5114847;28;20089;-44
2022/06/04 02:31:30;;;;;;;2.30;1.17;;;23.70;40.20;;;;;;5117217;28;20018;-46
2022/06/04 02:34:29;;;;;;;2.25;1.20;;;23.70;39.90;;;;;;5117126;28;20015;-43
2022/06/04 02:37:14;;;;;;;2.65;1.30;;;23.80;39.90;;;;;;5106501;28;20043;-47
2022/06/04 02:40:03;;;;;;;2.42;1.10;;;23.80;39.90;;;;;;5119138;28;20031;-42
2022/06/04 02:42:34;;;;;;;1.85;1.30;;;23.80;39.90;;;;;;5109404;28;20088;-47
2022/06/04 02:45:33;;;;;;;2.53;1.20;;;23.80;39.80;;;;;;5100658;28;20019;-46
2022/06/04 02:48:28;;;;;;;4.13;1.20;;;23.70;40.30;;;;;;5119190;28;20076;-45
2022/06/04 02:51:00;;;;;;;2.25;1.15;;;23.70;39.70;;;;;;5110404;28;20028;-47
2022/06/04 02:53:27;;;;;;;3.17;1.40;;;23.80;39.70;;;;;;5119515;28;20083;-42
2022/06/04 02:56:00;;;;;;;2.28;1.33;;;23.80;39.70;;;;;;5119921;28;20018;-49
2022/06/04 02:58:26;;;;;;;2.67;1.15;;;23.80;39.60;;;;;;5120209;28;20044;-46
2022/06/04 03:00:53;;;;;;;2.20;1.10;;;23.80;39.50;;;;;;5118635;28;20015;-42
2022/06/04 03:03:20;;;;;;;2.75;1.10;;;23.80;39.50;;;;;;5118090;28;20015;-46
2022/06/04 03:05:56;;;;;;;2.58;1.40;;;23.80;39.50;;;;;;5117511;28;20224;-42
2022/06/04 03:08:22;;;;;;;1.10;1.00;;;23.80;39.50;;;;;;5117439;28;20068;-46
2022/06/04 03:10:48;;;;;;;2.00;1.20;;;23.80;39.40;;;;;;5118641;28;20019;-47
2022/06/04 03:13:17;;;;;;;2.13;1.10;;;23.80;39.40;;;;;;5118636;28;20016;-46
2022/06/04 03:15:44;;;;;;;1.90;1.30;;;23.80;39.50;;;;;;5118219;28;20043;-42
2022/06/04 03:18:11;;;;;;;1.20;1.00;;;23.80;39.40;;;;;;5119017;28;20019;-47
2022/06/04 03:20:37;;;;;;;1.65;1.00;;;23.80;39.30;;;;;;5117429;28;20004;-43
2022/06/04 03:23:03;;;;;;;3.33;1.42;;;23.80;39.40;;;;;;5118975;28;20126;-42
2022/06/04 03:25:30;;;;;;;3.33;1.17;;;23.80;39.30;;;;;;5118749;28;20023;-41
2022/06/04 03:27:56;;;;;;;1.65;1.08;;;23.80;39.30;;;;;;5119024;28;20095;-41
2022/06/04 03:30:22;;;;;;;3.78;1.42;;;23.80;39.30;;;;;;5117396;28;20458;-42
2022/06/04 03:32:47;;;;;;;1.63;1.23;;;23.80;39.20;;;;;;5119201;28;20024;-44
2022/06/04 03:35:14;;;;;;;3.60;1.40;;;23.80;39.20;;;;;;5118074;28;20474;-44
2022/06/04 03:37:39;;;;;;;2.53;1.38;;;23.80;39.20;;;;;;5120138;28;20051;-42
2022/06/04 03:40:06;;;;;;;1.27;0.95;;;23.80;39.20;;;;;;5121855;28;20451;-41
2022/06/04 03:42:32;;;;;;;1.80;1.00;;;23.80;39.20;;;;;;5122770;28;20031;-47
2022/06/04 03:44:58;;;;;;;2.08;1.10;;;23.80;39.20;;;;;;5121544;28;20073;-48
2022/06/04 03:47:25;;;;;;;4.28;1.23;;;23.80;39.10;;;;;;5121734;28;20032;-45
2022/06/04 03:49:51;;;;;;;1.42;1.17;;;23.80;39.10;;;;;;5122807;28;20012;-46
2022/06/04 03:52:17;;;;;;;1.65;0.98;;;23.80;39.10;;;;;;5124661;28;20045;-42
2022/06/04 03:54:52;;;;;;;2.72;1.63;;;23.80;39.10;;;;;;5118904;28;20020;-43
2022/06/04 04:00:27;;;;;;;2.53;1.27;;;23.80;39.10;;;;;;5119418;28;20539;-42
2022/06/04 04:03:04;;;;;;;2.97;1.20;;;23.70;39.20;;;;;;5118768;28;20047;-45
2022/06/04 04:05:32;;;;;;;2.97;1.35;;;23.70;39.10;;;;;;5119201;28;20011;-45
2022/06/04 04:07:59;;;;;;;3.33;1.10;;;23.70;39.10;;;;;;5118975;28;20016;-42
2022/06/04 04:10:25;;;;;;;2.13;1.10;;;23.70;39.10;;;;;;5119037;28;20014;-42
2022/06/04 04:12:51;;;;;;;2.88;1.50;;;23.80;39.10;;;;;;5117991;28;20030;-41
2022/06/04 04:15:16;;;;;;;1.83;1.25;;;23.70;39.10;;;;;;5099047;28;20485;-44
2022/06/04 04:17:42;;;;;;;2.35;1.05;;;23.70;39.00;;;;;;5098861;28;20020;-42
2022/06/04 04:20:30;;;;;;;3.20;1.20;;;23.70;39.00;;;;;;5117215;28;20024;-42
2022/06/04 04:22:56;;;;;;;2.53;1.08;;;23.80;39.10;;;;;;5116864;28;20058;-41
2022/06/04 04:25:24;;;;;;;1.08;0.98;;;23.70;39.00;;;;;;5116085;28;20016;-42
2022/06/04 04:27:49;;;;;;;2.58;1.25;;;23.70;38.90;;;;;;5117334;28;20044;-41
2022/06/04 04:30:17;;;;;;;2.03;1.17;;;23.80;38.90;;;;;;5117113;28;20072;-41
2022/06/04 04:32:43;;;;;;;2.05;1.20;;;23.70;38.90;;;;;;5116373;28;20050;-41
2022/06/04 04:35:16;;;;;;;1.95;1.15;;;23.70;38.90;;;;;;5115983;28;20023;-42
2022/06/04 04:37:42;;;;;;;3.70;1.30;;;23.70;38.90;;;;;;5117103;28;20011;-43
2022/06/04 04:40:09;;;;;;;3.60;1.52;;;23.70;38.90;;;;;;5116788;28;20050;-42
2022/06/04 04:42:35;;;;;;;2.47;1.20;;;23.70;38.90;;;;;;5116546;28;20031;-41
2022/06/04 04:45:01;;;;;;;2.17;1.10;;;23.70;38.90;;;;;;5116504;28;20019;-41
2022/06/04 04:47:28;;;;;;;3.50;1.10;;;23.70;38.90;;;;;;5116520;28;20032;-42
2022/06/04 04:49:54;;;;;;;2.67;1.40;;;23.60;38.80;;;;;;5117079;28;20110;-41
2022/06/04 04:52:20;;;;;;;3.28;1.40;;;23.60;38.80;;;;;;5117229;28;20037;-41
2022/06/04 04:54:46;;;;;;;2.22;1.30;;;23.60;38.80;;;;;;5117323;28;20073;-41
2022/06/04 04:57:12;;;;;;;1.55;1.05;;;23.60;38.80;;;;;;5116051;28;20016;-41
2022/06/04 04:59:38;;;;;;;3.05;1.25;;;23.60;38.80;;;;;;5117673;28;20079;-41
2022/06/04 05:02:04;;;;;;;1.73;1.30;;;23.60;38.70;;;;;;5117579;28;20035;-41
2022/06/04 05:04:29;;;;;;;1.73;1.30;;;23.60;38.70;;;;;;5117013;28;20011;-44
2022/06/04 05:06:55;;;;;;;1.60;1.20;;;23.60;38.70;;;;;;5117053;28;20035;-44
2022/06/04 05:09:21;;;;;;;2.65;1.27;;;23.50;38.70;;;;;;5119403;28;20008;-41
2022/06/04 05:11:46;;;;;;;1.75;1.17;;;23.50;38.50;;;;;;5119085;28;20012;-41
2022/06/04 05:14:12;;;;;;;2.13;1.30;;;23.50;38.70;;;;;;5119438;28;20378;-45
2022/06/04 05:16:38;;;;;;;5.20;1.30;;;23.50;38.70;;;;;;5119236;28;20023;-39
2022/06/04 05:19:04;;;;;;;2.72;1.23;;;23.40;38.70;;;;;;5117995;28;20462;-39
2022/06/04 05:21:47;;;;;;;2.88;1.10;;;23.40;38.60;;;;;;5117857;28;20492;-39
2022/06/04 05:24:21;;;;;;;1.63;1.20;;;23.40;38.50;;;;;;5117120;28;20039;-38
2022/06/04 05:26:47;;;;;;;1.30;1.10;;;23.40;38.60;;;;;;5117474;28;20054;-40
2022/06/04 05:29:13;;;;;;;1.70;1.10;;;23.40;38.60;;;;;;5117555;28;20016;-39
2022/06/04 05:31:42;;;;;;;1.73;1.33;;;23.40;38.50;;;;;;5115787;28;20023;-39
2022/06/04 05:34:11;;;;;;;1.75;1.20;;;23.40;38.50;;;;;;5117180;28;20023;-38
2022/06/04 05:36:37;;;;;;;2.28;1.10;;;23.40;38.40;;;;;;5116465;28;20024;-38
2022/06/04 05:39:03;;;;;;;2.30;1.15;;;23.40;38.40;;;;;;5116380;28;20019;-38
2022/06/04 05:41:29;;;;;;;1.48;1.20;;;23.40;38.40;;;;;;5117382;28;20015;-41
2022/06/04 05:43:55;;;;;;;3.92;1.40;;;23.40;38.40;;;;;;5118468;28;20374;-39
2022/06/04 05:46:22;;;;;;;6.85;2.08;;;23.40;38.40;;;;;;5117871;28;20122;-38
2022/06/04 05:48:47;;;;;;;1.98;1.20;;;23.40;38.40;;;;;;5099969;28;20023;-38
2022/06/04 05:51:19;;;;;;;3.40;1.65;;;23.40;38.30;;;;;;5119347;28;20016;-41
2022/06/04 05:53:44;;;;;;;1.55;1.10;;;23.50;38.30;;;;;;5117184;28;20024;-40
2022/06/04 05:56:16;;;;;;;1.65;1.10;;;23.50;38.30;;;;;;5116937;28;20479;-41
2022/06/04 05:58:42;;;;;;;2.92;1.17;;;23.50;38.20;;;;;;5116879;28;20020;-38
2022/06/04 06:01:08;;;;;;;4.25;1.20;;;23.50;38.10;;;;;;5117424;28;20474;-39
2022/06/04 06:03:33;;;;;;;4.53;1.65;;;23.40;38.10;;;;;;5118396;28;20603;-39
2022/06/04 06:06:01;;;;;;;3.00;1.17;;;23.40;38.30;;;;;;5118174;28;20162;-42
2022/06/04 06:08:27;;;;;;;2.17;1.13;;;23.40;38.20;;;;;;5099693;28;20012;-40
2022/06/04 06:10:53;;;;;;;1.98;1.35;;;23.30;38.30;;;;;;5116397;28;20023;-39
2022/06/04 06:13:19;;;;;;;3.38;1.20;;;23.30;38.30;;;;;;5099912;28;20397;-40
2022/06/04 06:15:44;;;;;;;3.42;1.30;;;23.20;38.30;;;;;;5117427;28;20061;-39
2022/06/04 06:18:10;;;;;;;2.42;1.30;;;23.10;38.50;;;;;;5117535;28;20114;-41
2022/06/04 06:20:41;;;;;;;3.17;1.30;;;23.20;38.50;;;;;;5115414;28;20032;-41
2022/06/04 06:23:09;;;;;;;3.08;1.27;;;23.10;38.50;;;;;;5114667;28;20048;-40
2022/06/04 06:25:35;;;;;;;2.63;1.30;;;23.10;38.50;;;;;;5116177;28;20023;-39
2022/06/04 06:28:01;;;;;;;1.67;1.17;;;23.10;38.50;;;;;;5114875;28;20027;-39
2022/06/04 06:30:27;;;;;;;3.05;1.30;;;23.10;38.40;;;;;;5115667;28;20135;-39
2022/06/04 06:32:54;;;;;;;1.95;1.17;;;23.10;38.40;;;;;;5115209;28;20039;-40
2022/06/04 06:35:20;;;;;;;3.15;1.30;;;23.20;38.30;;;;;;5114683;28;20016;-41
2022/06/04 06:37:46;;;;;;;3.03;1.05;;;23.30;38.30;;;;;;5113884;28;20099;-43
2022/06/04 06:40:12;;;;;;;4.93;1.30;;;23.30;38.20;;;;;;5116587;28;20454;-39
2022/06/04 06:42:38;;;;;;;4.30;1.58;;;23.30;38.30;;;;;;5115935;28;20110;-41
2022/06/04 06:45:04;;;;;;;1.92;1.40;;;23.30;38.30;;;;;;5117012;28;20039;-41
2022/06/04 06:47:33;;;;;;;3.40;1.30;;;23.30;38.30;;;;;;5115695;28;20084;-38
2022/06/04 06:50:00;;;;;;;4.90;1.50;;;23.20;38.30;;;;;;5116159;28;20023;-39
2022/06/04 06:52:26;;;;;;;2.78;1.38;;;23.10;38.70;;;;;;5115781;28;20485;-39
2022/06/04 06:54:52;;;;;;;4.13;1.63;;;23.10;38.70;;;;;;5115583;28;20052;-39
2022/06/04 06:57:18;;;;;;;2.13;1.20;;;23.20;38.60;;;;;;5114322;28;20049;-40
2022/06/04 06:59:47;;;;;;;2.63;1.50;;;23.20;38.50;;;;;;5115587;28;20466;-39
2022/06/04 07:02:13;;;;;;;3.53;1.60;;;23.30;39.00;;;;;;5113829;28;20051;-41
2022/06/04 07:04:38;;;;;;;3.88;1.30;;;23.20;38.40;;;;;;5114458;28;20039;-40
2022/06/04 07:07:04;;;;;;;3.97;1.40;;;23.30;38.40;;;;;;5115857;28;20032;-39
2022/06/04 07:09:32;;;;;;;2.22;1.35;;;23.30;38.40;;;;;;5118605;28;20091;-43
2022/06/04 07:11:59;;;;;;;2.90;1.20;;;23.40;38.30;;;;;;5119336;28;20148;-41
2022/06/04 07:14:25;;;;;;;2.30;1.23;;;23.50;38.10;;;;;;5118959;28;20056;-40
2022/06/04 07:16:51;;;;;;;3.10;1.15;;;23.70;38.00;;;;;;5116759;28;20016;-39
2022/06/04 07:19:17;;;;;;;1.83;1.02;;;23.80;37.70;;;;;;5116839;28;20031;-40
2022/06/04 07:21:43;;;;;;;2.13;1.13;;;23.90;37.50;;;;;;5117474;28;20038;-42
2022/06/04 07:24:10;;;;;;;4.38;1.25;;;24.10;37.30;;;;;;5115243;28;20466;-40
2022/06/04 07:26:37;;;;;;;3.85;1.40;;;24.20;37.00;;;;;;5096257;28;20032;-40
2022/06/04 07:29:02;;;;;;;2.22;1.17;;;24.30;36.80;;;;;;5113943;28;20003;-39
2022/06/04 07:31:29;;;;;;;3.15;1.20;;;24.40;36.90;;;;;;5113485;28;20024;-38
2022/06/04 07:33:56;;;;;;;2.17;1.27;;;24.50;36.70;;;;;;5115707;28;20534;-41
2022/06/04 07:36:28;;;;;;;2.55;1.50;;;24.50;36.60;;;;;;5115064;28;20031;-39
2022/06/04 07:38:54;;;;;;;1.88;1.20;;;24.50;36.50;;;;;;5115983;28;20012;-39
2022/06/04 07:41:28;;;;;;;4.18;1.13;;;24.60;36.40;;;;;;5115625;28;20034;-39
2022/06/04 07:43:54;;;;;;;2.42;1.10;;;24.70;36.40;;;;;;5114501;28;20034;-40
2022/06/04 07:46:20;;;;;;;3.03;1.13;;;24.70;36.90;;;;;;5114824;28;20027;-42
2022/06/04 07:48:46;;;;;;;2.28;1.10;;;24.70;36.30;;;;;;5114903;28;20543;-42
2022/06/04 07:51:12;;;;;;;3.20;1.55;;;24.80;36.20;;;;;;5115324;28;20413;-42
2022/06/04 07:53:38;;;;;;;2.95;1.20;;;24.80;36.20;;;;;;5115570;28;20019;-41
2022/06/04 07:56:08;;;;;;;1.35;0.95;;;24.90;36.10;;;;;;5116818;28;20033;-42
2022/06/04 07:58:34;;;;;;;;;;;25.00;36.10;;;;;;5117251;28;20083;-42
2022/06/04 08:01:01;;;;;;;2.17;1.10;;;25.10;36.00;;;;;;5115966;28;19965;-44
2022/06/04 08:03:27;;;;;;;3.03;1.20;;;25.10;35.90;;;;;;5113760;28;20107;-42
2022/06/04 08:05:52;;;;;;;1.90;1.20;;;25.20;35.90;;;;;;5113724;28;20050;-42
2022/06/04 08:08:18;;;;;;;3.55;1.60;;;25.20;35.80;;;;;;5115749;28;20028;-43
2022/06/04 08:10:48;;;;;;;1.55;1.10;;;25.30;35.70;;;;;;5119003;28;20027;-42
2022/06/04 08:13:22;;;;;;;3.33;1.20;;;25.50;35.60;;;;;;5117737;28;20012;-41
2022/06/04 08:15:47;;;;;;;4.22;1.30;;;25.60;35.60;;;;;;5118123;28;20474;-41
2022/06/04 08:18:14;;;;;;;3.20;1.30;;;25.60;35.50;;;;;;5118767;28;20032;-41
2022/06/04 08:20:43;;;;;;;1.70;1.30;;;25.80;35.40;;;;;;5118737;28;20026;-39
2022/06/04 08:23:09;;;;;;;2.60;1.10;;;25.90;35.30;;;;;;5117492;28;20062;-41
2022/06/04 08:25:44;;;;;;;3.40;1.15;;;26.00;34.90;;;;;;5117955;28;20477;-39
2022/06/04 08:28:09;;;;;;;1.92;1.23;;;26.20;34.90;;;;;;5118033;27;20028;-40
2022/06/04 08:30:35;;;;;;;3.63;1.30;;;26.20;34.90;;;;;;5118378;28;20015;-42
2022/06/04 08:33:01;;;;;;;2.28;1.30;;;26.30;34.60;;;;;;5117510;28;20019;-41
2022/06/04 08:35:27;;;;;;;2.13;1.27;;;26.30;34.60;;;;;;5118415;28;20080;-43
2022/06/04 08:37:52;;;;;;;2.38;1.10;;;26.30;34.60;;;;;;5117942;28;20139;-43
2022/06/04 08:40:25;;;;;;;5.50;1.13;;;26.30;34.60;;;;;;5099566;28;20466;-43
2022/06/04 08:43:13;;;;;;;3.85;1.30;;;26.20;34.90;;;;;;5099854;28;20019;-42
2022/06/04 08:45:40;;;;;;;2.55;1.20;;;26.20;35.00;;;;;;5087189;28;20040;-43
2022/06/04 08:48:19;;;;;;;3.92;1.45;;;26.20;35.10;;;;;;5117617;28;20152;-45
2022/06/04 08:50:44;;;;;;;2.80;1.13;;;26.10;35.20;;;;;;5099925;28;20071;-41
2022/06/04 08:53:24;;;;;;;2.38;1.20;;;26.10;35.30;;;;;;5100464;28;20135;-43
2022/06/04 08:59:06;;;;;;;2.25;1.30;;;26.30;35.00;;;;;;5117636;28;20152;-43
2022/06/04 09:01:57;;;;;;;2.88;1.30;;;26.30;35.00;;;;;;5118751;28;20019;-42
2022/06/04 09:04:47;;;;;;;2.42;1.33;;;26.30;35.00;;;;;;5103378;28;20028;-42
2022/06/04 09:07:29;;;;;;;4.13;1.35;;;26.30;35.00;;;;;;5119051;28;20023;-45
2022/06/04 09:10:15;;;;;;;4.63;1.45;;;26.40;35.00;;;;;;5116994;28;20103;-49
2022/06/04 09:12:47;;;;;;;2.55;1.20;;;26.40;35.20;;;;;;5118188;28;20505;-45
2022/06/04 09:15:29;;;;;;;2.78;1.40;;;26.40;35.10;;;;;;5118343;28;20016;-46
2022/06/04 09:17:58;;;;;;;3.72;1.55;;;26.50;35.10;;;;;;5117032;28;20040;-42
2022/06/04 09:20:33;;;;;;;3.50;1.38;;;26.50;35.20;;;;;;5117081;28;20382;-47
2022/06/04 09:23:34;;;;;;;2.83;1.35;;;26.40;35.10;;;;;;5117728;28;20048;-42
2022/06/04 09:26:06;;;;;;;1.98;1.30;;;26.40;35.30;;;;;;5116442;28;20445;-45
2022/06/04 09:28:41;;;;;;;2.92;1.30;;;26.40;35.30;;;;;;5118195;28;20546;-45
2022/06/04 09:31:09;;;;;;;1.77;1.17;;;26.40;35.50;;;;;;5115950;28;20504;-45
2022/06/04 09:34:19;;;;;;;2.72;1.20;;;26.30;35.50;;;;;;5116437;28;20128;-46
2022/06/04 09:36:46;;;;;;;2.08;1.30;;;26.20;35.70;;;;;;5108614;28;20049;-46
2022/06/04 09:39:24;;;;;;;3.25;1.45;;;26.20;35.90;;;;;;5114451;28;20045;-45
2022/06/04 09:41:57;;;;;;;3.05;1.38;;;26.20;35.90;;;;;;5116026;28;20020;-46
2022/06/04 09:44:24;;;;;;;3.95;1.50;;;26.20;35.90;;;;;;5116421;28;20015;-47
2022/06/04 09:46:56;;;;;;;2.28;1.20;;;26.20;36.00;;;;;;5116023;28;20032;-42
2022/06/04 09:49:31;;;;;;;2.88;1.48;;;26.20;36.10;;;;;;5114758;28;20019;-48
2022/06/04 09:51:56;;;;;;;2.97;1.50;;;26.30;36.20;;;;;;5097827;28;20015;-47
2022/06/04 09:54:34;;;;;;;5.60;1.67;;;26.30;36.30;;;;;;5116557;28;20062;-49
2022/06/04 09:57:02;;;;;;;5.10;1.77;;;26.30;36.30;;;;;;5116365;28;20046;-48
2022/06/04 09:59:30;;;;;;;3.03;1.50;;;26.20;36.40;;;;;;5115149;28;20051;-46
2022/06/04 10:02:02;;;;;;;3.10;1.48;;;26.20;36.50;;;;;;5117693;28;20011;-48
2022/06/04 10:04:39;;;;;;;2.47;1.42;;;26.30;36.50;;;;;;5116781;28;20031;-46
2022/06/04 10:07:20;;;;;;;3.92;1.80;;;26.30;36.30;;;;;;5117308;28;20020;-47
2022/06/04 10:09:56;;;;;;;5.75;1.50;;;26.40;36.40;;;;;;5100414;28;20084;-50
2022/06/04 10:15:30;;;;;;;3.90;1.48;;;26.60;36.10;;;;;;5115376;28;20031;-47
2022/06/04 10:18:21;;;;;;;2.70;1.60;;;26.60;36.20;;;;;;5114637;28;20019;-47
2022/06/04 10:21:00;;;;;;;4.38;1.75;;;26.70;36.20;;;;;;5104855;28;20023;-46
2022/06/04 10:23:26;;;;;;;3.15;1.65;;;26.70;36.20;;;;;;5115564;28;20545;-54
2022/06/04 10:26:41;;;;;;;3.08;1.60;;;26.60;36.40;;;;;;5116421;28;20012;-44
2022/06/04 10:29:19;;;;;;;2.10;1.83;;;26.60;36.50;;;;;;5113421;27;20039;-46
2022/06/04 10:31:54;;;;;;;3.92;1.80;;;26.60;36.40;;;;;;5117350;28;20098;-43
2022/06/04 10:34:26;;;;;;;2.70;1.77;;;26.70;36.40;;;;;;5116956;28;20015;-47
2022/06/04 10:37:01;;;;;;;2.97;1.70;;;26.70;36.30;;;;;;5116750;28;20011;-47
2022/06/04 10:39:48;;;;;;;2.70;1.95;;;26.60;36.60;;;;;;5115459;28;20043;-50
2022/06/04 10:42:23;;;;;;;3.88;2.15;;;26.50;37.00;;;;;;5115172;28;20550;-45
2022/06/04 10:45:15;;;;;;;4.13;1.80;;;26.40;37.20;;;;;;5115129;28;20023;-48
2022/06/04 10:48:08;;;;;;;3.60;1.80;;;26.30;37.30;;;;;;5115241;28;20024;-47
2022/06/04 10:54:06;;;;;;;5.10;1.95;;;26.40;37.50;;;;;;5117597;28;20073;-47
2022/06/04 10:57:10;;;;;;;3.08;1.90;;;26.30;38.00;;;;;;5119215;28;20011;-48
2022/06/04 10:59:42;;;;;;;2.78;2.00;;;26.20;38.10;;;;;;5118712;28;20431;-50
2022/06/04 11:02:36;;;;;;;3.55;2.20;;;26.20;38.10;;;;;;5117703;28;20023;-46
2022/06/04 11:05:05;;;;;;;4.35;1.95;;;26.20;38.20;;;;;;5117510;28;20027;-45
2022/06/04 11:07:37;;;;;;;3.08;1.90;;;26.20;38.30;;;;;;5116546;28;20039;-46
2022/06/04 11:10:05;;;;;;;3.95;1.90;;;26.10;38.30;;;;;;5113301;28;20007;-47
2022/06/04 11:12:53;;;;;;;4.70;2.10;;;26.10;38.50;;;;;;5096343;28;20015;-47
2022/06/04 11:15:39;;;;;;;2.40;1.85;;;26.10;38.60;;;;;;5115342;28;20072;-48
2022/06/04 11:18:12;;;;;;;5.03;2.17;;;26.10;38.60;;;;;;5097466;28;20016;-47
2022/06/04 11:20:42;;;;;;;4.15;2.03;;;26.00;38.90;;;;;;5115618;28;20101;-46
2022/06/04 11:23:20;;;;;;;3.17;2.10;;;26.00;38.80;;;;;;5115119;28;20039;-46
2022/06/04 11:25:47;;;;;;;5.60;2.35;;;25.90;39.20;;;;;;5114622;28;20020;-50
2022/06/04 11:28:23;;;;;;;4.75;2.60;;;25.90;39.60;;;;;;5096937;28;20028;-49
2022/06/04 11:31:07;;;;;;;6.38;2.75;;;25.80;39.70;;;;;;5115746;28;20016;-46
2022/06/04 11:33:39;;;;;;;6.45;2.67;;;25.70;39.80;;;;;;5115116;28;20080;-48
2022/06/04 11:36:22;;;;;;;3.35;2.20;;;25.60;40.20;;;;;;5115102;28;20030;-47
2022/06/04 11:39:10;;;;;;;3.67;2.10;;;25.60;40.10;;;;;;5115102;28;20040;-45
2022/06/04 11:41:45;;;;;;;3.42;2.10;;;25.60;40.20;;;;;;5113870;28;20020;-48
2022/06/04 11:44:18;;;;;;;4.25;2.45;;;25.60;40.30;;;;;;5117001;28;20102;-46
2022/06/04 11:46:48;;;;;;;3.03;2.40;;;25.50;40.70;;;;;;5116705;28;20032;-48
2022/06/04 11:49:38;;;;;;;4.68;2.88;;;25.50;40.70;;;;;;5118233;28;20094;-46
2022/06/04 11:52:22;;;;;;;7.22;2.50;;;25.40;41.00;;;;;;5117484;28;20016;-44
2022/06/04 11:55:01;;;;;;;3.10;2.22;;;25.40;41.70;;;;;;5117040;28;20020;-45
2022/06/04 11:57:51;;;;;;;5.28;2.60;;;25.30;41.10;;;;;;5117732;28;20098;-42
2022/06/04 12:00:31;;;;;;;3.33;2.65;;;25.30;41.20;;;;;;5118779;28;20052;-42
2022/06/04 12:03:00;;;;;;;4.80;2.78;;;25.30;41.30;;;;;;5119869;28;20481;-44
2022/06/04 12:05:35;;;;;;;3.95;2.55;;;25.30;41.30;;;;;;5119440;28;20032;-43
2022/06/04 12:08:04;;;;;;;3.13;2.40;;;25.40;41.50;;;;;;5119026;28;20034;-44
2022/06/04 12:10:35;;;;;;;4.05;2.30;;;25.30;41.50;;;;;;5119169;28;20104;-43
2022/06/04 12:13:30;;;;;;;3.72;2.60;;;25.30;41.60;;;;;;5120216;27;20526;-43
2022/06/04 12:16:03;;;;;;;4.30;2.80;;;25.30;41.50;;;;;;5116259;28;20049;-47
2022/06/04 12:18:43;;;;;;;4.00;2.90;;;25.20;42.00;;;;;;5118184;28;20012;-42
2022/06/04 12:24:38;;;;;;;3.38;2.75;;;25.20;41.90;;;;;;5115061;28;20045;-42
2022/06/04 12:27:23;;;;;;;5.15;3.30;;;25.20;42.10;;;;;;5117579;28;20024;-40
2022/06/04 12:29:56;;;;;;;5.95;3.22;;;25.10;42.30;;;;;;5115900;28;20012;-42
2022/06/04 12:32:28;;;;;;;5.07;3.08;;;25.10;42.30;;;;;;5116579;28;20485;-41
2022/06/04 12:35:21;;;;;;;7.38;2.70;;;25.10;42.50;;;;;;5099305;28;20039;-41
2022/06/04 12:37:56;;;;;;;3.63;2.92;;;25.10;42.40;;;;;;5114734;27;20100;-41
2022/06/04 12:40:22;;;;;;;4.53;3.20;;;25.10;42.30;;;;;;5116920;28;20010;-44
2022/06/04 12:42:58;;;;;;;6.35;3.20;;;25.10;42.50;;;;;;5119623;27;20036;-42
2022/06/04 12:45:38;;;;;;;4.90;3.00;;;25.00;42.60;;;;;;5116701;28;20401;-41
2022/06/04 12:48:30;;;;;;;4.85;2.70;;;25.10;42.60;;;;;;5116335;28;20051;-41
2022/06/04 12:51:17;;;;;;;4.60;3.35;;;25.10;42.60;;;;;;5115772;28;20024;-40
2022/06/04 12:53:59;;;;;;;4.38;3.25;;;25.10;42.70;;;;;;5099378;28;20012;-44
2022/06/04 12:56:30;;;;;;;6.90;3.50;;;25.10;42.90;;;;;;5115293;28;20007;-43
2022/06/04 12:58:57;;;;;;;6.22;3.50;;;25.10;43.10;;;;;;5099258;28;20102;-41
2022/06/04 13:01:32;;;;;;;5.40;3.10;;;25.10;43.10;;;;;;5117239;27;20020;-43
2022/06/04 13:04:09;;;;;;;6.22;3.50;;;25.10;43.10;;;;;;5118259;27;20077;-40
2022/06/04 13:06:52;;;;;;;6.55;3.80;;;25.10;43.20;;;;;;5117961;28;20075;-41
2022/06/04 13:09:56;;;;;;;6.15;3.60;;;25.00;43.30;;;;;;5117148;28;20020;-41
2022/06/04 13:12:40;;;;;;;5.57;3.92;;;25.10;43.30;;;;;;5061979;28;20048;-41
2022/06/04 13:15:26;;;;;;;5.07;3.20;;;25.00;43.70;;;;;;5073697;28;20027;-43
2022/06/04 13:17:53;;;;;;;5.88;3.83;;;25.00;43.90;;;;;;5059866;28;20020;-43
2022/06/04 13:20:40;;;;;;;6.90;3.40;;;24.90;44.00;;;;;;5073994;28;20070;-41
2022/06/04 13:23:27;;;;;;;5.95;3.70;;;25.00;43.90;;;;;;5075070;28;20161;-42
2022/06/04 13:26:30;;;;;;;6.38;3.58;;;25.00;44.20;;;;;;5061901;28;20024;-44
2022/06/04 13:28:56;;;;;;;4.95;3.83;;;25.00;44.20;;;;;;5003015;28;20401;-42
2022/06/04 13:31:23;;;;;;;4.93;3.60;;;25.00;44.00;;;;;;5013988;28;20168;-43
2022/06/04 13:33:50;;;;;;;7.57;3.78;;;25.00;44.10;;;;;;5014294;28;20551;-44
2022/06/04 13:36:21;;;;;;;4.35;3.47;;;25.00;44.30;;;;;;4998366;28;20033;-44
2022/06/04 13:38:47;;;;;;;5.55;3.53;;;25.00;44.20;;;;;;5013868;28;20030;-42